sensor_id;sensor_type;location;lat;lon;timestamp;pressure;altitude;pressure_sealevel;temperature;humidity
33859;BME280;20156;47.486;12.074;2022-10-23T00:03:43;92665.56;;;8.48;100.00
33859;BME280;20156;47.486;12.074;2022-10-23T00:06:09;92640.50;;;8.64;100.00
33859;BME280;20156;47.486;12.074;2022-10-23T00:08:34;92627.28;;;8.60;100.00
33859;BME280;20156;47.486;12.074;2022-10-23T00:11:00;92619.75;;;8.59;100.00
33859;BME280;20156;47.486;12.074;2022-10-23T00:13:25;92616.91;;;8.60;100.00
33859;BME280;20156;47.486;12.074;2022-10-23T00:15:50;92599.28;;;8.62;100.00
33859;BME280;20156;47.486;12.074;2022-10-23T00:18:16;92610.66;;;8.51;100.00
33859;BME280;20156;47.486;12.074;2022-10-23T00:20:41;92630.31;;;8.42;100.00
33859;BME280;20156;47.486;12.074;2022-10-23T00:23:07;92619.97;;;8.52;100.00
33859;BME280;20156;47.486;12.074;2022-10-23T00:25:32;92616.88;;;8.55;100.00
33859;BME280;20156;47.486;12.074;2022-10-23T00:27:58;92621.00;;;8.41;100.00
33859;BME280;20156;47.486;12.074;2022-10-23T00:30:23;92625.31;;;8.30;100.00
33859;BME280;20156;47.486;12.074;2022-10-23T00:32:49;92628.69;;;8.31;100.00
33859;BME280;20156;47.486;12.074;2022-10-23T00:35:14;92621.53;;;8.43;100.00
33859;BME280;20156;47.486;12.074;2022-10-23T00:37:40;92614.25;;;8.40;100.00
33859;BME280;20156;47.486;12.074;2022-10-23T00:40:05;92649.31;;;8.10;100.00
33859;BME280;20156;47.486;12.074;2022-10-23T00:42:31;92657.56;;;8.02;100.00
33859;BME280;20156;47.486;12.074;2022-10-23T00:45:33;92650.03;;;8.01;100.00
33859;BME280;20156;47.486;12.074;2022-10-23T00:48:02;92624.53;;;8.25;100.00
33859;BME280;20156;47.486;12.074;2022-10-23T00:50:30;92619.09;;;8.26;100.00
33859;BME280;20156;47.486;12.074;2022-10-23T00:52:58;92606.94;;;8.27;100.00
33859;BME280;20156;47.486;12.074;2022-10-23T00:55:25;92610.25;;;8.17;100.00
33859;BME280;20156;47.486;12.074;2022-10-23T00:57:51;92626.19;;;7.94;100.00
33859;BME280;20156;47.486;12.074;2022-10-23T01:00:26;92626.38;;;7.82;100.00
33859;BME280;20156;47.486;12.074;2022-10-23T01:02:52;92622.78;;;7.88;100.00
33859;BME280;20156;47.486;12.074;2022-10-23T01:05:21;92607.31;;;7.93;100.00
33859;BME280;20156;47.486;12.074;2022-10-23T01:08:01;92588.94;;;8.00;100.00
33859;BME280;20156;47.486;12.074;2022-10-23T01:15:46;92516.00;;;8.08;100.00
33859;BME280;20156;47.486;12.074;2022-10-23T01:29:47;92505.84;;;7.96;100.00
33859;BME280;20156;47.486;12.074;2022-10-23T01:35:17;92514.88;;;7.89;100.00
33859;BME280;20156;47.486;12.074;2022-10-23T01:38:02;92522.59;;;7.78;100.00
33859;BME280;20156;47.486;12.074;2022-10-23T01:41:20;92483.84;;;8.04;100.00
33859;BME280;20156;47.486;12.074;2022-10-23T01:43:25;92484.38;;;8.01;100.00
33859;BME280;20156;47.486;12.074;2022-10-23T01:46:12;92467.84;;;8.12;100.00
33859;BME280;20156;47.486;12.074;2022-10-23T01:48:40;92477.38;;;7.91;100.00
33859;BME280;20156;47.486;12.074;2022-10-23T01:51:09;92477.06;;;7.82;100.00
33859;BME280;20156;47.486;12.074;2022-10-23T01:53:38;92485.59;;;7.73;100.00
33859;BME280;20156;47.486;12.074;2022-10-23T01:56:25;92482.75;;;7.74;100.00
33859;BME280;20156;47.486;12.074;2022-10-23T01:58:54;92465.16;;;7.81;100.00
33859;BME280;20156;47.486;12.074;2022-10-23T02:01:23;92464.66;;;7.84;100.00
33859;BME280;20156;47.486;12.074;2022-10-23T02:03:50;92488.41;;;7.71;100.00
33859;BME280;20156;47.486;12.074;2022-10-23T02:06:16;92535.09;;;7.39;100.00
33859;BME280;20156;47.486;12.074;2022-10-23T02:08:42;92544.13;;;7.37;100.00
33859;BME280;20156;47.486;12.074;2022-10-23T02:11:19;92529.22;;;7.54;100.00
33859;BME280;20156;47.486;12.074;2022-10-23T02:16:54;92505.25;;;7.74;100.00
33859;BME280;20156;47.486;12.074;2022-10-23T02:27:15;92546.44;;;7.33;100.00
33859;BME280;20156;47.486;12.074;2022-10-23T02:29:45;92546.94;;;7.30;100.00
33859;BME280;20156;47.486;12.074;2022-10-23T02:32:13;92530.75;;;7.50;100.00
33859;BME280;20156;47.486;12.074;2022-10-23T02:34:39;92538.69;;;7.38;100.00
33859;BME280;20156;47.486;12.074;2022-10-23T02:37:04;92566.22;;;7.17;100.00
33859;BME280;20156;47.486;12.074;2022-10-23T02:39:30;92587.88;;;7.06;100.00
33859;BME280;20156;47.486;12.074;2022-10-23T02:42:10;92600.22;;;6.99;100.00
33859;BME280;20156;47.486;12.074;2022-10-23T02:47:47;92570.13;;;7.20;100.00
33859;BME280;20156;47.486;12.074;2022-10-23T02:52:58;92583.00;;;7.10;100.00
33859;BME280;20156;47.486;12.074;2022-10-23T03:00:51;92554.16;;;7.28;100.00
33859;BME280;20156;47.486;12.074;2022-10-23T03:03:44;92554.09;;;7.18;100.00
33859;BME280;20156;47.486;12.074;2022-10-23T03:06:12;92593.44;;;6.93;100.00
33859;BME280;20156;47.486;12.074;2022-10-23T03:08:48;92621.50;;;6.79;100.00
33859;BME280;20156;47.486;12.074;2022-10-23T03:11:14;92666.16;;;6.53;100.00
33859;BME280;20156;47.486;12.074;2022-10-23T03:13:39;92655.97;;;6.68;100.00
33859;BME280;20156;47.486;12.074;2022-10-23T03:16:05;92649.44;;;6.87;100.00
33859;BME280;20156;47.486;12.074;2022-10-23T03:18:30;92664.44;;;6.85;100.00
33859;BME280;20156;47.486;12.074;2022-10-23T03:20:56;92636.25;;;7.11;100.00
33859;BME280;20156;47.486;12.074;2022-10-23T03:23:21;92646.44;;;6.96;100.00
33859;BME280;20156;47.486;12.074;2022-10-23T03:25:47;92637.97;;;7.05;100.00
33859;BME280;20156;47.486;12.074;2022-10-23T03:28:12;92642.88;;;7.02;100.00
33859;BME280;20156;47.486;12.074;2022-10-23T03:30:38;92657.84;;;7.00;100.00
33859;BME280;20156;47.486;12.074;2022-10-23T03:33:03;92685.09;;;6.85;100.00
33859;BME280;20156;47.486;12.074;2022-10-23T03:35:28;92695.69;;;6.84;100.00
33859;BME280;20156;47.486;12.074;2022-10-23T03:37:54;92692.47;;;6.99;100.00
33859;BME280;20156;47.486;12.074;2022-10-23T03:40:19;92707.63;;;6.90;100.00
33859;BME280;20156;47.486;12.074;2022-10-23T03:42:45;92705.75;;;6.85;100.00
33859;BME280;20156;47.486;12.074;2022-10-23T03:45:10;92710.69;;;6.87;100.00
33859;BME280;20156;47.486;12.074;2022-10-23T03:47:35;92711.72;;;6.86;100.00
33859;BME280;20156;47.486;12.074;2022-10-23T03:50:06;92709.63;;;6.83;100.00
33859;BME280;20156;47.486;12.074;2022-10-23T03:52:32;92691.03;;;6.86;100.00
33859;BME280;20156;47.486;12.074;2022-10-23T03:54:57;92685.09;;;6.85;100.00
33859;BME280;20156;47.486;12.074;2022-10-23T03:57:22;92674.59;;;6.92;100.00
33859;BME280;20156;47.486;12.074;2022-10-23T03:59:48;92680.41;;;6.82;100.00
33859;BME280;20156;47.486;12.074;2022-10-23T04:02:14;92669.53;;;6.80;100.00
33859;BME280;20156;47.486;12.074;2022-10-23T04:04:39;92681.09;;;6.73;100.00
33859;BME280;20156;47.486;12.074;2022-10-23T04:07:05;92639.31;;;6.81;100.00
33859;BME280;20156;47.486;12.074;2022-10-23T04:09:30;92611.31;;;7.00;100.00
33859;BME280;20156;47.486;12.074;2022-10-23T04:11:55;92609.00;;;6.98;100.00
33859;BME280;20156;47.486;12.074;2022-10-23T04:14:21;92589.50;;;7.17;100.00
33859;BME280;20156;47.486;12.074;2022-10-23T04:16:46;92583.09;;;7.25;100.00
33859;BME280;20156;47.486;12.074;2022-10-23T04:19:12;92566.13;;;7.39;100.00
33859;BME280;20156;47.486;12.074;2022-10-23T04:21:37;92599.81;;;7.12;100.00
33859;BME280;20156;47.486;12.074;2022-10-23T04:24:03;92595.25;;;7.24;100.00
33859;BME280;20156;47.486;12.074;2022-10-23T04:26:29;92592.94;;;7.28;100.00
33859;BME280;20156;47.486;12.074;2022-10-23T04:28:54;92602.22;;;7.24;100.00
33859;BME280;20156;47.486;12.074;2022-10-23T04:31:19;92645.63;;;6.90;100.00
33859;BME280;20156;47.486;12.074;2022-10-23T04:33:46;92635.84;;;6.97;100.00
33859;BME280;20156;47.486;12.074;2022-10-23T04:36:11;92644.16;;;6.99;100.00
33859;BME280;20156;47.486;12.074;2022-10-23T04:38:37;92636.16;;;7.01;100.00
33859;BME280;20156;47.486;12.074;2022-10-23T04:41:02;92620.44;;;7.07;100.00
33859;BME280;20156;47.486;12.074;2022-10-23T04:43:27;92610.66;;;7.09;100.00
33859;BME280;20156;47.486;12.074;2022-10-23T04:45:53;92607.81;;;7.11;100.00
33859;BME280;20156;47.486;12.074;2022-10-23T04:48:18;92618.34;;;7.04;100.00
33859;BME280;20156;47.486;12.074;2022-10-23T04:50:53;92614.50;;;7.07;100.00
33859;BME280;20156;47.486;12.074;2022-10-23T04:53:20;92611.97;;;7.17;100.00
33859;BME280;20156;47.486;12.074;2022-10-23T04:55:50;92601.19;;;7.25;100.00
33859;BME280;20156;47.486;12.074;2022-10-23T04:58:16;92644.88;;;6.94;100.00
33859;BME280;20156;47.486;12.074;2022-10-23T05:00:41;92643.56;;;6.92;100.00
33859;BME280;20156;47.486;12.074;2022-10-23T05:03:07;92638.19;;;6.99;100.00
33859;BME280;20156;47.486;12.074;2022-10-23T05:05:32;92643.66;;;7.02;100.00
33859;BME280;20156;47.486;12.074;2022-10-23T05:07:57;92631.81;;;7.06;100.00
33859;BME280;20156;47.486;12.074;2022-10-23T05:10:23;92622.53;;;7.10;100.00
33859;BME280;20156;47.486;12.074;2022-10-23T05:12:48;92617.56;;;7.04;100.00
33859;BME280;20156;47.486;12.074;2022-10-23T05:15:14;92607.53;;;7.07;100.00
33859;BME280;20156;47.486;12.074;2022-10-23T05:17:40;92598.50;;;7.10;100.00
33859;BME280;20156;47.486;12.074;2022-10-23T05:20:12;92578.91;;;7.19;100.00
33859;BME280;20156;47.486;12.074;2022-10-23T05:22:39;92563.44;;;7.24;100.00
33859;BME280;20156;47.486;12.074;2022-10-23T05:25:07;92554.16;;;7.28;100.00
33859;BME280;20156;47.486;12.074;2022-10-23T05:27:32;92580.19;;;7.16;100.00
33859;BME280;20156;47.486;12.074;2022-10-23T05:29:57;92594.09;;;7.10;100.00
33859;BME280;20156;47.486;12.074;2022-10-23T05:32:24;92597.22;;;7.12;100.00
33859;BME280;20156;47.486;12.074;2022-10-23T05:34:51;92622.94;;;6.97;100.00
33859;BME280;20156;47.486;12.074;2022-10-23T05:37:17;92637.78;;;6.80;100.00
33859;BME280;20156;47.486;12.074;2022-10-23T05:39:43;92638.78;;;6.79;100.00
33859;BME280;20156;47.486;12.074;2022-10-23T05:42:08;92623.41;;;6.89;100.00
33859;BME280;20156;47.486;12.074;2022-10-23T05:44:34;92622.38;;;6.90;100.00
33859;BME280;20156;47.486;12.074;2022-10-23T05:46:59;92617.50;;;6.93;100.00
33859;BME280;20156;47.486;12.074;2022-10-23T05:49:25;92599.00;;;7.07;100.00
33859;BME280;20156;47.486;12.074;2022-10-23T05:51:50;92589.22;;;7.14;100.00
33859;BME280;20156;47.486;12.074;2022-10-23T05:54:16;92595.31;;;7.03;100.00
33859;BME280;20156;47.486;12.074;2022-10-23T05:56:41;92602.78;;;6.99;100.00
33859;BME280;20156;47.486;12.074;2022-10-23T05:59:07;92613.63;;;6.96;100.00
33859;BME280;20156;47.486;12.074;2022-10-23T06:01:33;92624.72;;;6.91;100.00
33859;BME280;20156;47.486;12.074;2022-10-23T06:03:59;92625.03;;;7.00;100.00
33859;BME280;20156;47.486;12.074;2022-10-23T06:06:25;92630.22;;;7.05;100.00
33859;BME280;20156;47.486;12.074;2022-10-23T06:08:51;92644.75;;;7.06;100.00
33859;BME280;20156;47.486;12.074;2022-10-23T06:11:16;92647.34;;;7.11;100.00
33859;BME280;20156;47.486;12.074;2022-10-23T06:13:42;92646.13;;;7.19;100.00
33859;BME280;20156;47.486;12.074;2022-10-23T06:16:12;92649.56;;;7.30;100.00
33859;BME280;20156;47.486;12.074;2022-10-23T06:18:39;92645.81;;;7.42;100.00
33859;BME280;20156;47.486;12.074;2022-10-23T06:21:05;92650.25;;;7.52;100.00
33859;BME280;20156;47.486;12.074;2022-10-23T06:23:32;92641.03;;;7.66;100.00
33859;BME280;20156;47.486;12.074;2022-10-23T06:25:58;92633.88;;;7.78;100.00
33859;BME280;20156;47.486;12.074;2022-10-23T06:28:24;92639.56;;;7.75;100.00
33859;BME280;20156;47.486;12.074;2022-10-23T06:30:49;92661.47;;;7.63;100.00
33859;BME280;20156;47.486;12.074;2022-10-23T06:33:15;92662.47;;;7.57;100.00
33859;BME280;20156;47.486;12.074;2022-10-23T06:35:40;92684.09;;;7.45;100.00
33859;BME280;20156;47.486;12.074;2022-10-23T06:38:05;92679.81;;;7.61;100.00
33859;BME280;20156;47.486;12.074;2022-10-23T06:40:33;92671.88;;;7.73;100.00
33859;BME280;20156;47.486;12.074;2022-10-23T06:42:58;92663.16;;;7.84;100.00
33859;BME280;20156;47.486;12.074;2022-10-23T06:45:23;92663.50;;;7.98;100.00
33859;BME280;20156;47.486;12.074;2022-10-23T06:47:49;92670.19;;;7.94;100.00
33859;BME280;20156;47.486;12.074;2022-10-23T06:50:15;92689.56;;;7.86;100.00
33859;BME280;20156;47.486;12.074;2022-10-23T06:52:41;92691.19;;;7.97;100.00
33859;BME280;20156;47.486;12.074;2022-10-23T06:55:07;92677.53;;;8.07;100.00
33859;BME280;20156;47.486;12.074;2022-10-23T06:57:32;92692.31;;;8.11;100.00
33859;BME280;20156;47.486;12.074;2022-10-23T06:59:58;92695.94;;;8.15;100.00
33859;BME280;20156;47.486;12.074;2022-10-23T07:02:23;92685.66;;;8.31;100.00
33859;BME280;20156;47.486;12.074;2022-10-23T07:04:49;92683.69;;;8.43;100.00
33859;BME280;20156;47.486;12.074;2022-10-23T07:07:14;92689.41;;;8.50;100.00
33859;BME280;20156;47.486;12.074;2022-10-23T07:09:40;92695.94;;;8.63;100.00
33859;BME280;20156;47.486;12.074;2022-10-23T07:12:05;92732.81;;;8.33;100.00
33859;BME280;20156;47.486;12.074;2022-10-23T07:14:31;92744.19;;;8.27;100.00
33859;BME280;20156;47.486;12.074;2022-10-23T07:16:57;92766.38;;;8.18;100.00
33859;BME280;20156;47.486;12.074;2022-10-23T07:19:22;92770.34;;;8.25;100.00
33859;BME280;20156;47.486;12.074;2022-10-23T07:21:49;92745.59;;;8.44;100.00
33859;BME280;20156;47.486;12.074;2022-10-23T07:24:14;92729.63;;;8.63;100.00
33859;BME280;20156;47.486;12.074;2022-10-23T07:26:40;92727.81;;;8.63;100.00
33859;BME280;20156;47.486;12.074;2022-10-23T07:29:05;92727.38;;;8.87;100.00
33859;BME280;20156;47.486;12.074;2022-10-23T07:31:31;92734.16;;;8.93;100.00
33859;BME280;20156;47.486;12.074;2022-10-23T07:33:57;92720.69;;;9.06;100.00
33859;BME280;20156;47.486;12.074;2022-10-23T07:36:23;92725.13;;;9.21;100.00
33859;BME280;20156;47.486;12.074;2022-10-23T07:38:49;92702.63;;;9.42;100.00
33859;BME280;20156;47.486;12.074;2022-10-23T07:41:15;92706.50;;;9.54;100.00
33859;BME280;20156;47.486;12.074;2022-10-23T07:43:41;92717.16;;;9.58;100.00
33859;BME280;20156;47.486;12.074;2022-10-23T07:46:06;92747.75;;;9.41;100.00
33859;BME280;20156;47.486;12.074;2022-10-23T07:48:36;92734.28;;;9.44;100.00
33859;BME280;20156;47.486;12.074;2022-10-23T07:51:05;92750.09;;;9.47;100.00
33859;BME280;20156;47.486;12.074;2022-10-23T07:53:33;92737.91;;;9.63;100.00
33859;BME280;20156;47.486;12.074;2022-10-23T07:56:09;92752.44;;;9.69;100.00
33859;BME280;20156;47.486;12.074;2022-10-23T07:58:36;92760.78;;;9.91;100.00
33859;BME280;20156;47.486;12.074;2022-10-23T08:01:02;92766.75;;;10.02;100.00
33859;BME280;20156;47.486;12.074;2022-10-23T08:03:30;92795.84;;;9.99;100.00
33859;BME280;20156;47.486;12.074;2022-10-23T08:05:58;92814.53;;;9.96;100.00
33859;BME280;20156;47.486;12.074;2022-10-23T08:08:25;92828.56;;;10.10;100.00
33859;BME280;20156;47.486;12.074;2022-10-23T08:10:52;92818.44;;;10.39;100.00
33859;BME280;20156;47.486;12.074;2022-10-23T08:13:20;92829.88;;;10.64;100.00
33859;BME280;20156;47.486;12.074;2022-10-23T08:15:47;92836.34;;;10.66;100.00
33859;BME280;20156;47.486;12.074;2022-10-23T08:18:13;92849.88;;;10.58;100.00
33859;BME280;20156;47.486;12.074;2022-10-23T08:20:41;92837.88;;;10.82;100.00
33859;BME280;20156;47.486;12.074;2022-10-23T08:23:07;92820.13;;;11.10;100.00
33859;BME280;20156;47.486;12.074;2022-10-23T08:25:33;92810.69;;;11.29;100.00
33859;BME280;20156;47.486;12.074;2022-10-23T08:27:58;92823.16;;;11.32;100.00
33859;BME280;20156;47.486;12.074;2022-10-23T08:30:24;92860.69;;;11.16;100.00
33859;BME280;20156;47.486;12.074;2022-10-23T08:32:50;92889.06;;;11.12;100.00
33859;BME280;20156;47.486;12.074;2022-10-23T08:35:16;92857.31;;;11.75;100.00
33859;BME280;20156;47.486;12.074;2022-10-23T08:37:41;92851.13;;;12.15;100.00
33859;BME280;20156;47.486;12.074;2022-10-23T08:40:13;92877.63;;;12.27;100.00
33859;BME280;20156;47.486;12.074;2022-10-23T08:42:40;92892.81;;;12.54;100.00
33859;BME280;20156;47.486;12.074;2022-10-23T08:45:27;92919.88;;;12.58;100.00
33859;BME280;20156;47.486;12.074;2022-10-23T08:47:54;92957.69;;;12.66;100.00
33859;BME280;20156;47.486;12.074;2022-10-23T08:50:34;93002.75;;;12.77;100.00
33859;BME280;20156;47.486;12.074;2022-10-23T08:53:13;93051.19;;;12.88;100.00
33859;BME280;20156;47.486;12.074;2022-10-23T08:58:42;93159.72;;;12.89;100.00
33859;BME280;20156;47.486;12.074;2022-10-23T09:03:54;93188.84;;;13.16;100.00
33859;BME280;20156;47.486;12.074;2022-10-23T09:06:38;93252.06;;;13.03;100.00
33859;BME280;20156;47.486;12.074;2022-10-23T09:09:39;93276.56;;;13.17;100.00
33859;BME280;20156;47.486;12.074;2022-10-23T09:12:12;93227.13;;;13.41;100.00
33859;BME280;20156;47.486;12.074;2022-10-23T09:19:54;93105.66;;;13.44;100.00
33859;BME280;20156;47.486;12.074;2022-10-23T09:22:23;93095.22;;;13.44;100.00
33859;BME280;20156;47.486;12.074;2022-10-23T09:24:48;93111.47;;;13.36;100.00
33859;BME280;20156;47.486;12.074;2022-10-23T09:27:16;93119.28;;;13.36;100.00
33859;BME280;20156;47.486;12.074;2022-10-23T09:29:50;93134.91;;;13.46;100.00
33859;BME280;20156;47.486;12.074;2022-10-23T09:32:17;93156.13;;;13.34;100.00
33859;BME280;20156;47.486;12.074;2022-10-23T09:34:52;93187.56;;;13.58;100.00
33859;BME280;20156;47.486;12.074;2022-10-23T09:37:24;93234.47;;;13.34;100.00
33859;BME280;20156;47.486;12.074;2022-10-23T09:40:10;93228.50;;;13.73;100.00
33859;BME280;20156;47.486;12.074;2022-10-23T09:42:37;93236.63;;;14.05;100.00
33859;BME280;20156;47.486;12.074;2022-10-23T09:45:02;93309.75;;;13.76;100.00
33859;BME280;20156;47.486;12.074;2022-10-23T09:47:44;93315.78;;;13.72;100.00
33859;BME280;20156;47.486;12.074;2022-10-23T09:50:19;93337.56;;;14.06;100.00
33859;BME280;20156;47.486;12.074;2022-10-23T09:52:48;93368.59;;;14.62;100.00
33859;BME280;20156;47.486;12.074;2022-10-23T09:55:23;93385.97;;;14.82;100.00
33859;BME280;20156;47.486;12.074;2022-10-23T09:57:51;93389.81;;;14.90;100.00
33859;BME280;20156;47.486;12.074;2022-10-23T10:00:25;93402.09;;;14.94;100.00
33859;BME280;20156;47.486;12.074;2022-10-23T10:03:01;93401.91;;;14.86;100.00
33859;BME280;20156;47.486;12.074;2022-10-23T10:05:32;93411.53;;;15.24;100.00
33859;BME280;20156;47.486;12.074;2022-10-23T10:11:11;93475.16;;;14.96;100.00
33859;BME280;20156;47.486;12.074;2022-10-23T10:19:22;93374.59;;;15.50;100.00
33859;BME280;20156;47.486;12.074;2022-10-23T10:21:55;93417.94;;;15.66;100.00
33859;BME280;20156;47.486;12.074;2022-10-23T10:24:34;93424.63;;;16.01;100.00
33859;BME280;20156;47.486;12.074;2022-10-23T10:30:15;93478.47;;;16.17;100.00
33859;BME280;20156;47.486;12.074;2022-10-23T10:33:00;93517.38;;;16.34;100.00
33859;BME280;20156;47.486;12.074;2022-10-23T10:38:21;93646.84;;;16.53;100.00
33859;BME280;20156;47.486;12.074;2022-10-23T10:47:02;93679.78;;;16.41;100.00
33859;BME280;20156;47.486;12.074;2022-10-23T10:54:51;93565.22;;;15.73;100.00
33859;BME280;20156;47.486;12.074;2022-10-23T10:57:33;93494.31;;;15.54;100.00
33859;BME280;20156;47.486;12.074;2022-10-23T11:00:12;93472.44;;;15.69;100.00
33859;BME280;20156;47.486;12.074;2022-10-23T11:05:32;93444.50;;;16.26;100.00
33859;BME280;20156;47.486;12.074;2022-10-23T11:08:06;93523.41;;;16.35;100.00
33859;BME280;20156;47.486;12.074;2022-10-23T11:10:40;93574.38;;;16.52;100.00
33859;BME280;20156;47.486;12.074;2022-10-23T11:13:21;93647.50;;;16.69;100.00
33859;BME280;20156;47.486;12.074;2022-10-23T11:15:49;93686.38;;;16.91;100.00
33859;BME280;20156;47.486;12.074;2022-10-23T11:18:23;93710.94;;;16.81;100.00
33859;BME280;20156;47.486;12.074;2022-10-23T11:38:22;93653.72;;;16.20;100.00
33859;BME280;20156;47.486;12.074;2022-10-23T11:40:56;93545.84;;;16.22;100.00
33859;BME280;20156;47.486;12.074;2022-10-23T11:43:31;93582.03;;;16.25;100.00
33859;BME280;20156;47.486;12.074;2022-10-23T11:45:58;93637.91;;;16.54;100.00
33859;BME280;20156;47.486;12.074;2022-10-23T11:48:37;93606.88;;;16.57;100.00
33859;BME280;20156;47.486;12.074;2022-10-23T11:51:04;93498.16;;;16.81;100.00
33859;BME280;20156;47.486;12.074;2022-10-23T11:58:49;93502.88;;;17.17;100.00
33859;BME280;20156;47.486;12.074;2022-10-23T12:06:48;93641.03;;;17.42;100.00
33859;BME280;20156;47.486;12.074;2022-10-23T12:09:40;93613.56;;;17.34;100.00
33859;BME280;20156;47.486;12.074;2022-10-23T12:17:28;93726.91;;;18.27;100.00
33859;BME280;20156;47.486;12.074;2022-10-23T12:22:55;93838.97;;;18.71;100.00
33859;BME280;20156;47.486;12.074;2022-10-23T12:34:17;93961.91;;;18.14;100.00
33859;BME280;20156;47.486;12.074;2022-10-23T12:39:42;93866.81;;;18.20;100.00
33859;BME280;20156;47.486;12.074;2022-10-23T12:42:21;93794.38;;;18.04;100.00
33859;BME280;20156;47.486;12.074;2022-10-23T12:47:23;93801.84;;;18.16;100.00
33859;BME280;20156;47.486;12.074;2022-10-23T12:49:50;93795.16;;;18.23;100.00
33859;BME280;20156;47.486;12.074;2022-10-23T12:52:18;93790.34;;;18.44;100.00
33859;BME280;20156;47.486;12.074;2022-10-23T12:54:43;93851.66;;;18.31;100.00
33859;BME280;20156;47.486;12.074;2022-10-23T12:57:27;93871.94;;;18.49;100.00
33859;BME280;20156;47.486;12.074;2022-10-23T12:59:57;93918.03;;;18.28;100.00
33859;BME280;20156;47.486;12.074;2022-10-23T13:02:24;93855.59;;;18.33;100.00
33859;BME280;20156;47.486;12.074;2022-10-23T13:04:52;93857.84;;;18.59;100.00
33859;BME280;20156;47.486;12.074;2022-10-23T13:07:21;93895.09;;;18.52;100.00
33859;BME280;20156;47.486;12.074;2022-10-23T13:09:47;93940.88;;;18.75;100.00
33859;BME280;20156;47.486;12.074;2022-10-23T13:12:57;93896.78;;;18.81;100.00
33859;BME280;20156;47.486;12.074;2022-10-23T13:15:23;93901.84;;;18.77;100.00
33859;BME280;20156;47.486;12.074;2022-10-23T13:25:55;93898.59;;;18.67;100.00
33859;BME280;20156;47.486;12.074;2022-10-23T13:28:32;93823.97;;;18.52;100.00
33859;BME280;20156;47.486;12.074;2022-10-23T13:31:05;93787.53;;;18.41;100.00
33859;BME280;20156;47.486;12.074;2022-10-23T13:33:42;93731.31;;;18.31;100.00
33859;BME280;20156;47.486;12.074;2022-10-23T13:39:32;93646.00;;;18.32;100.00
33859;BME280;20156;47.486;12.074;2022-10-23T13:41:35;93644.13;;;18.33;100.00
33859;BME280;20156;47.486;12.074;2022-10-23T13:44:02;93651.66;;;18.53;100.00
33859;BME280;20156;47.486;12.074;2022-10-23T13:46:28;93654.00;;;18.55;100.00
33859;BME280;20156;47.486;12.074;2022-10-23T13:48:54;93626.78;;;18.46;100.00
33859;BME280;20156;47.486;12.074;2022-10-23T13:51:23;93625.69;;;18.47;100.00
33859;BME280;20156;47.486;12.074;2022-10-23T13:53:50;93639.34;;;18.35;100.00
33859;BME280;20156;47.486;12.074;2022-10-23T13:56:18;93600.63;;;18.22;100.00
33859;BME280;20156;47.486;12.074;2022-10-23T13:58:44;93532.25;;;18.03;100.00
33859;BME280;20156;47.486;12.074;2022-10-23T14:01:24;93511.56;;;17.96;100.00
33859;BME280;20156;47.486;12.074;2022-10-23T14:03:52;93481.34;;;17.80;100.00
33859;BME280;20156;47.486;12.074;2022-10-23T14:06:18;93410.66;;;17.46;100.00
33859;BME280;20156;47.486;12.074;2022-10-23T14:08:44;93347.75;;;17.36;100.00
33859;BME280;20156;47.486;12.074;2022-10-23T14:11:11;93314.34;;;17.36;100.00
33859;BME280;20156;47.486;12.074;2022-10-23T14:13:36;93257.50;;;17.27;100.00
33859;BME280;20156;47.486;12.074;2022-10-23T14:16:02;93171.78;;;17.03;100.00
33859;BME280;20156;47.486;12.074;2022-10-23T14:18:28;93170.59;;;17.09;100.00
33859;BME280;20156;47.486;12.074;2022-10-23T14:20:53;93179.34;;;17.19;100.00
33859;BME280;20156;47.486;12.074;2022-10-23T14:23:19;93236.50;;;16.99;100.00
33859;BME280;20156;47.486;12.074;2022-10-23T14:25:44;93347.06;;;17.17;100.00
33859;BME280;20156;47.486;12.074;2022-10-23T14:28:10;93413.00;;;17.34;100.00
33859;BME280;20156;47.486;12.074;2022-10-23T14:30:36;93340.75;;;17.31;100.00
33859;BME280;20156;47.486;12.074;2022-10-23T14:33:03;93329.22;;;17.00;100.00
33859;BME280;20156;47.486;12.074;2022-10-23T14:35:28;93343.53;;;17.07;100.00
33859;BME280;20156;47.486;12.074;2022-10-23T14:37:54;93314.72;;;17.02;100.00
33859;BME280;20156;47.486;12.074;2022-10-23T14:40:19;93301.00;;;17.05;100.00
33859;BME280;20156;47.486;12.074;2022-10-23T14:42:45;93235.72;;;16.99;100.00
33859;BME280;20156;47.486;12.074;2022-10-23T14:45:11;93175.66;;;17.06;100.00
33859;BME280;20156;47.486;12.074;2022-10-23T14:47:36;93142.28;;;17.06;100.00
33859;BME280;20156;47.486;12.074;2022-10-23T14:50:02;93121.56;;;17.05;100.00
33859;BME280;20156;47.486;12.074;2022-10-23T14:52:28;93111.03;;;17.05;100.00
33859;BME280;20156;47.486;12.074;2022-10-23T14:54:54;93095.75;;;17.07;100.00
33859;BME280;20156;47.486;12.074;2022-10-23T14:57:20;93092.22;;;16.75;100.00
33859;BME280;20156;47.486;12.074;2022-10-23T14:59:47;93088.00;;;16.61;100.00
33859;BME280;20156;47.486;12.074;2022-10-23T15:02:14;93104.25;;;16.63;100.00
33859;BME280;20156;47.486;12.074;2022-10-23T15:04:39;93107.56;;;16.54;100.00
33859;BME280;20156;47.486;12.074;2022-10-23T15:07:05;93114.84;;;16.58;100.00
33859;BME280;20156;47.486;12.074;2022-10-23T15:09:31;93120.22;;;16.52;100.00
33859;BME280;20156;47.486;12.074;2022-10-23T15:12:02;93078.31;;;16.34;100.00
33859;BME280;20156;47.486;12.074;2022-10-23T15:14:28;93051.78;;;16.21;100.00
33859;BME280;20156;47.486;12.074;2022-10-23T15:16:54;93018.06;;;16.15;100.00
33859;BME280;20156;47.486;12.074;2022-10-23T15:19:19;93003.19;;;16.10;100.00